sensor_id;sensor_type;location;lat;lon;timestamp;P1;durP1;ratioP1;P2;durP2;ratioP2
45356;SDS011;31092;51.924;21.448;2023-08-17T00:02:12;5.93;;;4.35;;
45356;SDS011;31092;51.924;21.448;2023-08-17T00:04:38;4.65;;;4.35;;
45356;SDS011;31092;51.924;21.448;2023-08-17T00:07:04;4.30;;;4.00;;
45356;SDS011;31092;51.924;21.448;2023-08-17T00:09:30;5.03;;;4.63;;
45356;SDS011;31092;51.924;21.448;2023-08-17T00:11:55;5.30;;;4.97;;
45356;SDS011;31092;51.924;21.448;2023-08-17T00:14:21;5.13;;;4.63;;
45356;SDS011;31092;51.924;21.448;2023-08-17T00:16:46;5.43;;;4.93;;
45356;SDS011;31092;51.924;21.448;2023-08-17T00:19:14;5.65;;;5.15;;
45356;SDS011;31092;51.924;21.448;2023-08-17T00:21:40;4.93;;;4.63;;
45356;SDS011;31092;51.924;21.448;2023-08-17T00:24:05;4.82;;;4.43;;
45356;SDS011;31092;51.924;21.448;2023-08-17T00:26:31;5.07;;;4.70;;
45356;SDS011;31092;51.924;21.448;2023-08-17T00:28:57;4.82;;;4.45;;
45356;SDS011;31092;51.924;21.448;2023-08-17T00:31:22;4.85;;;4.57;;
45356;SDS011;31092;51.924;21.448;2023-08-17T00:33:47;4.43;;;4.13;;
45356;SDS011;31092;51.924;21.448;2023-08-17T00:36:13;4.75;;;4.45;;
45356;SDS011;31092;51.924;21.448;2023-08-17T00:38:38;4.80;;;4.40;;
45356;SDS011;31092;51.924;21.448;2023-08-17T00:41:04;4.55;;;4.28;;
45356;SDS011;31092;51.924;21.448;2023-08-17T00:43:29;4.75;;;4.45;;
45356;SDS011;31092;51.924;21.448;2023-08-17T00:45:55;4.80;;;4.40;;
45356;SDS011;31092;51.924;21.448;2023-08-17T00:48:21;4.68;;;4.38;;
45356;SDS011;31092;51.924;21.448;2023-08-17T00:50:47;4.75;;;4.40;;
45356;SDS011;31092;51.924;21.448;2023-08-17T00:53:15;4.60;;;4.30;;
45356;SDS011;31092;51.924;21.448;2023-08-17T00:55:42;4.35;;;4.05;;
45356;SDS011;31092;51.924;21.448;2023-08-17T00:58:08;4.35;;;4.05;;
45356;SDS011;31092;51.924;21.448;2023-08-17T01:00:34;3.88;;;3.63;;
45356;SDS011;31092;51.924;21.448;2023-08-17T01:03:00;4.28;;;3.97;;
45356;SDS011;31092;51.924;21.448;2023-08-17T01:05:25;4.72;;;4.43;;
45356;SDS011;31092;51.924;21.448;2023-08-17T01:07:51;4.95;;;4.55;;
45356;SDS011;31092;51.924;21.448;2023-08-17T01:10:17;5.57;;;5.07;;
45356;SDS011;31092;51.924;21.448;2023-08-17T01:12:52;4.82;;;4.43;;
45356;SDS011;31092;51.924;21.448;2023-08-17T01:15:34;4.68;;;4.38;;
45356;SDS011;31092;51.924;21.448;2023-08-17T01:18:08;5.22;;;4.25;;
45356;SDS011;31092;51.924;21.448;2023-08-17T01:20:40;4.47;;;4.18;;
45356;SDS011;31092;51.924;21.448;2023-08-17T01:23:07;3.72;;;3.53;;
45356;SDS011;31092;51.924;21.448;2023-08-17T01:25:33;4.18;;;3.92;;
45356;SDS011;31092;51.924;21.448;2023-08-17T01:28:02;4.10;;;3.80;;
45356;SDS011;31092;51.924;21.448;2023-08-17T01:30:28;4.80;;;4.32;;
45356;SDS011;31092;51.924;21.448;2023-08-17T01:33:02;4.43;;;4.13;;
45356;SDS011;31092;51.924;21.448;2023-08-17T01:35:44;4.63;;;4.28;;
45356;SDS011;31092;51.924;21.448;2023-08-17T01:38:17;4.18;;;3.97;;
45356;SDS011;31092;51.924;21.448;2023-08-17T01:40:47;5.20;;;4.80;;
45356;SDS011;31092;51.924;21.448;2023-08-17T01:43:18;4.30;;;4.00;;
45356;SDS011;31092;51.924;21.448;2023-08-17T01:45:45;4.35;;;4.05;;
45356;SDS011;31092;51.924;21.448;2023-08-17T01:48:10;4.75;;;4.40;;
45356;SDS011;31092;51.924;21.448;2023-08-17T01:50:36;4.72;;;4.32;;
45356;SDS011;31092;51.924;21.448;2023-08-17T01:53:02;4.93;;;4.53;;
45356;SDS011;31092;51.924;21.448;2023-08-17T01:55:33;4.30;;;4.00;;
45356;SDS011;31092;51.924;21.448;2023-08-17T01:58:00;4.68;;;4.28;;
45356;SDS011;31092;51.924;21.448;2023-08-17T02:00:26;5.25;;;4.95;;
45356;SDS011;31092;51.924;21.448;2023-08-17T02:02:52;5.25;;;4.75;;
45356;SDS011;31092;51.924;21.448;2023-08-17T02:05:17;4.43;;;4.13;;
45356;SDS011;31092;51.924;21.448;2023-08-17T02:07:43;4.97;;;4.57;;
45356;SDS011;31092;51.924;21.448;2023-08-17T02:10:11;4.43;;;4.07;;
45356;SDS011;31092;51.924;21.448;2023-08-17T02:12:37;4.75;;;4.35;;
45356;SDS011;31092;51.924;21.448;2023-08-17T02:15:02;5.20;;;4.68;;
45356;SDS011;31092;51.924;21.448;2023-08-17T02:17:28;5.15;;;4.75;;
45356;SDS011;31092;51.924;21.448;2023-08-17T02:19:54;6.03;;;5.00;;
45356;SDS011;31092;51.924;21.448;2023-08-17T02:22:19;5.00;;;4.60;;
45356;SDS011;31092;51.924;21.448;2023-08-17T02:24:45;4.93;;;4.53;;
45356;SDS011;31092;51.924;21.448;2023-08-17T02:27:11;6.47;;;4.93;;
45356;SDS011;31092;51.924;21.448;2023-08-17T02:29:37;5.45;;;4.97;;
45356;SDS011;31092;51.924;21.448;2023-08-17T02:32:04;5.55;;;5.10;;
45356;SDS011;31092;51.924;21.448;2023-08-17T02:34:30;5.05;;;4.75;;
45356;SDS011;31092;51.924;21.448;2023-08-17T02:36:55;4.57;;;4.18;;
45356;SDS011;31092;51.924;21.448;2023-08-17T02:39:21;5.97;;;5.47;;
45356;SDS011;31092;51.924;21.448;2023-08-17T02:41:47;5.50;;;5.00;;
45356;SDS011;31092;51.924;21.448;2023-08-17T02:44:14;5.43;;;4.72;;
45356;SDS011;31092;51.924;21.448;2023-08-17T02:46:40;5.07;;;4.68;;
45356;SDS011;31092;51.924;21.448;2023-08-17T02:49:05;5.10;;;4.60;;
45356;SDS011;31092;51.924;21.448;2023-08-17T02:51:31;5.03;;;4.63;;
45356;SDS011;31092;51.924;21.448;2023-08-17T02:53:56;5.68;;;5.20;;
45356;SDS011;31092;51.924;21.448;2023-08-17T02:56:22;5.30;;;4.80;;
45356;SDS011;31092;51.924;21.448;2023-08-17T02:58:48;5.05;;;4.63;;
45356;SDS011;31092;51.924;21.448;2023-08-17T03:01:13;5.57;;;4.60;;
45356;SDS011;31092;51.924;21.448;2023-08-17T03:03:39;4.07;;;3.78;;
45356;SDS011;31092;51.924;21.448;2023-08-17T03:06:04;5.50;;;5.10;;
45356;SDS011;31092;51.924;21.448;2023-08-17T03:08:31;4.55;;;4.25;;
45356;SDS011;31092;51.924;21.448;2023-08-17T03:10:56;4.68;;;4.38;;
45356;SDS011;31092;51.924;21.448;2023-08-17T03:13:22;4.53;;;4.22;;
45356;SDS011;31092;51.924;21.448;2023-08-17T03:15:47;5.35;;;4.95;;
45356;SDS011;31092;51.924;21.448;2023-08-17T03:18:13;5.03;;;4.72;;
45356;SDS011;31092;51.924;21.448;2023-08-17T03:20:38;4.50;;;4.13;;
45356;SDS011;31092;51.924;21.448;2023-08-17T03:23:04;7.80;;;4.50;;
45356;SDS011;31092;51.924;21.448;2023-08-17T03:25:33;5.30;;;4.90;;
45356;SDS011;31092;51.924;21.448;2023-08-17T03:27:59;5.28;;;4.88;;
45356;SDS011;31092;51.924;21.448;2023-08-17T03:30:25;5.10;;;4.60;;
45356;SDS011;31092;51.924;21.448;2023-08-17T03:32:51;5.00;;;4.63;;
45356;SDS011;31092;51.924;21.448;2023-08-17T03:35:17;6.10;;;5.50;;
45356;SDS011;31092;51.924;21.448;2023-08-17T03:37:43;4.00;;;3.80;;
45356;SDS011;31092;51.924;21.448;2023-08-17T03:40:08;4.50;;;4.20;;
45356;SDS011;31092;51.924;21.448;2023-08-17T03:42:34;8.15;;;4.38;;
45356;SDS011;31092;51.924;21.448;2023-08-17T03:44:59;4.28;;;3.92;;
45356;SDS011;31092;51.924;21.448;2023-08-17T03:47:25;5.15;;;4.70;;
45356;SDS011;31092;51.924;21.448;2023-08-17T03:49:51;5.18;;;4.78;;
45356;SDS011;31092;51.924;21.448;2023-08-17T03:52:17;5.03;;;4.47;;
45356;SDS011;31092;51.924;21.448;2023-08-17T03:54:42;5.80;;;5.35;;
45356;SDS011;31092;51.924;21.448;2023-08-17T03:57:08;5.07;;;4.65;;
45356;SDS011;31092;51.924;21.448;2023-08-17T03:59:34;5.30;;;4.90;;
45356;SDS011;31092;51.924;21.448;2023-08-17T04:01:59;4.55;;;4.25;;
45356;SDS011;31092;51.924;21.448;2023-08-17T04:04:25;4.57;;;4.10;;
45356;SDS011;31092;51.924;21.448;2023-08-17T04:06:50;5.43;;;4.93;;
45356;SDS011;31092;51.924;21.448;2023-08-17T04:09:16;4.78;;;4.45;;
45356;SDS011;31092;51.924;21.448;2023-08-17T04:11:42;5.13;;;4.53;;
45356;SDS011;31092;51.924;21.448;2023-08-17T04:14:07;4.60;;;4.20;;
45356;SDS011;31092;51.924;21.448;2023-08-17T04:16:34;4.97;;;4.60;;
45356;SDS011;31092;51.924;21.448;2023-08-17T04:19:00;4.82;;;4.43;;
45356;SDS011;31092;51.924;21.448;2023-08-17T04:21:27;5.03;;;4.70;;
45356;SDS011;31092;51.924;21.448;2023-08-17T04:23:53;5.00;;;4.60;;
45356;SDS011;31092;51.924;21.448;2023-08-17T04:26:19;5.10;;;4.72;;
45356;SDS011;31092;51.924;21.448;2023-08-17T04:28:45;4.45;;;4.05;;
45356;SDS011;31092;51.924;21.448;2023-08-17T04:31:11;5.00;;;4.57;;
45356;SDS011;31092;51.924;21.448;2023-08-17T04:33:43;5.70;;;5.30;;
45356;SDS011;31092;51.924;21.448;2023-08-17T04:36:09;4.80;;;4.50;;
45356;SDS011;31092;51.924;21.448;2023-08-17T04:38:34;4.57;;;4.22;;
45356;SDS011;31092;51.924;21.448;2023-08-17T04:41:00;4.40;;;4.05;;
45356;SDS011;31092;51.924;21.448;2023-08-17T04:43:26;4.90;;;4.50;;
45356;SDS011;31092;51.924;21.448;2023-08-17T04:45:51;5.35;;;4.95;;
45356;SDS011;31092;51.924;21.448;2023-08-17T04:48:17;7.63;;;4.60;;
45356;SDS011;31092;51.924;21.448;2023-08-17T04:50:42;5.35;;;4.95;;
45356;SDS011;31092;51.924;21.448;2023-08-17T04:53:08;5.38;;;4.88;;
45356;SDS011;31092;51.924;21.448;2023-08-17T04:55:33;4.75;;;4.45;;
45356;SDS011;31092;51.924;21.448;2023-08-17T04:57:59;4.95;;;4.65;;
45356;SDS011;31092;51.924;21.448;2023-08-17T05:00:25;5.63;;;5.22;;
45356;SDS011;31092;51.924;21.448;2023-08-17T05:02:53;5.15;;;4.78;;
45356;SDS011;31092;51.924;21.448;2023-08-17T05:05:19;4.97;;;4.57;;
45356;SDS011;31092;51.924;21.448;2023-08-17T05:07:45;6.72;;;6.13;;
45356;SDS011;31092;51.924;21.448;2023-08-17T05:10:10;6.13;;;5.75;;
45356;SDS011;31092;51.924;21.448;2023-08-17T05:12:36;6.45;;;5.85;;
45356;SDS011;31092;51.924;21.448;2023-08-17T05:15:02;6.35;;;5.80;;
45356;SDS011;31092;51.924;21.448;2023-08-17T05:17:28;7.68;;;7.00;;
45356;SDS011;31092;51.924;21.448;2023-08-17T05:19:53;7.20;;;6.07;;
45356;SDS011;31092;51.924;21.448;2023-08-17T05:22:19;6.15;;;5.63;;
45356;SDS011;31092;51.924;21.448;2023-08-17T05:24:44;6.25;;;5.82;;
45356;SDS011;31092;51.924;21.448;2023-08-17T05:27:10;6.63;;;6.15;;
45356;SDS011;31092;51.924;21.448;2023-08-17T05:29:35;6.25;;;5.85;;
45356;SDS011;31092;51.924;21.448;2023-08-17T05:32:01;6.85;;;6.03;;
45356;SDS011;31092;51.924;21.448;2023-08-17T05:34:27;6.53;;;6.07;;
45356;SDS011;31092;51.924;21.448;2023-08-17T05:36:52;6.20;;;5.80;;
45356;SDS011;31092;51.924;21.448;2023-08-17T05:39:17;5.97;;;5.57;;
45356;SDS011;31092;51.924;21.448;2023-08-17T05:41:43;7.22;;;6.60;;
45356;SDS011;31092;51.924;21.448;2023-08-17T05:44:08;7.03;;;6.40;;
45356;SDS011;31092;51.924;21.448;2023-08-17T05:46:34;8.02;;;7.43;;
45356;SDS011;31092;51.924;21.448;2023-08-17T05:49:01;6.95;;;6.38;;
45356;SDS011;31092;51.924;21.448;2023-08-17T05:51:27;6.97;;;6.32;;
45356;SDS011;31092;51.924;21.448;2023-08-17T05:53:53;13.70;;;6.93;;
45356;SDS011;31092;51.924;21.448;2023-08-17T05:56:18;6.38;;;5.93;;
45356;SDS011;31092;51.924;21.448;2023-08-17T05:58:44;6.55;;;6.15;;
45356;SDS011;31092;51.924;21.448;2023-08-17T06:01:10;5.95;;;5.57;;
45356;SDS011;31092;51.924;21.448;2023-08-17T06:03:36;6.35;;;5.85;;
45356;SDS011;31092;51.924;21.448;2023-08-17T06:06:05;7.38;;;6.80;;
45356;SDS011;31092;51.924;21.448;2023-08-17T06:08:31;6.43;;;6.03;;
45356;SDS011;31092;51.924;21.448;2023-08-17T06:10:57;5.93;;;5.53;;
45356;SDS011;31092;51.924;21.448;2023-08-17T06:13:23;5.97;;;5.60;;
45356;SDS011;31092;51.924;21.448;2023-08-17T06:15:49;6.80;;;6.03;;
45356;SDS011;31092;51.924;21.448;2023-08-17T06:18:14;6.35;;;5.90;;
45356;SDS011;31092;51.924;21.448;2023-08-17T06:20:40;6.35;;;5.95;;
45356;SDS011;31092;51.924;21.448;2023-08-17T06:23:08;6.20;;;5.80;;
45356;SDS011;31092;51.924;21.448;2023-08-17T06:25:33;6.22;;;5.78;;
45356;SDS011;31092;51.924;21.448;2023-08-17T06:27:59;6.88;;;5.97;;
45356;SDS011;31092;51.924;21.448;2023-08-17T06:30:25;6.55;;;6.05;;
45356;SDS011;31092;51.924;21.448;2023-08-17T06:32:51;8.70;;;6.20;;
45356;SDS011;31092;51.924;21.448;2023-08-17T06:35:17;7.50;;;6.32;;
45356;SDS011;31092;51.924;21.448;2023-08-17T06:37:42;6.63;;;6.13;;
45356;SDS011;31092;51.924;21.448;2023-08-17T06:40:08;6.13;;;5.82;;
45356;SDS011;31092;51.924;21.448;2023-08-17T06:42:37;6.30;;;5.97;;
45356;SDS011;31092;51.924;21.448;2023-08-17T06:45:03;5.72;;;5.28;;
45356;SDS011;31092;51.924;21.448;2023-08-17T06:47:29;7.40;;;6.90;;
45356;SDS011;31092;51.924;21.448;2023-08-17T06:49:54;6.65;;;6.18;;
45356;SDS011;31092;51.924;21.448;2023-08-17T06:52:22;6.47;;;6.03;;
45356;SDS011;31092;51.924;21.448;2023-08-17T06:54:48;5.78;;;5.38;;
45356;SDS011;31092;51.924;21.448;2023-08-17T06:57:13;5.82;;;5.47;;
45356;SDS011;31092;51.924;21.448;2023-08-17T06:59:39;9.32;;;6.00;;
45356;SDS011;31092;51.924;21.448;2023-08-17T07:02:04;6.53;;;5.57;;
45356;SDS011;31092;51.924;21.448;2023-08-17T07:04:30;6.22;;;5.88;;
45356;SDS011;31092;51.924;21.448;2023-08-17T07:06:56;6.47;;;6.00;;
45356;SDS011;31092;51.924;21.448;2023-08-17T07:09:21;7.05;;;6.35;;
45356;SDS011;31092;51.924;21.448;2023-08-17T07:11:47;7.25;;;6.65;;
45356;SDS011;31092;51.924;21.448;2023-08-17T07:14:12;6.95;;;6.15;;
45356;SDS011;31092;51.924;21.448;2023-08-17T07:16:38;7.55;;;7.03;;
45356;SDS011;31092;51.924;21.448;2023-08-17T07:19:04;6.05;;;5.65;;
45356;SDS011;31092;51.924;21.448;2023-08-17T07:21:29;6.47;;;6.07;;
45356;SDS011;31092;51.924;21.448;2023-08-17T07:23:55;10.52;;;6.47;;
45356;SDS011;31092;51.924;21.448;2023-08-17T07:26:21;6.55;;;6.15;;
45356;SDS011;31092;51.924;21.448;2023-08-17T07:28:48;6.80;;;6.47;;
45356;SDS011;31092;51.924;21.448;2023-08-17T07:31:13;6.70;;;6.20;;
45356;SDS011;31092;51.924;21.448;2023-08-17T07:33:39;5.97;;;5.68;;
45356;SDS011;31092;51.924;21.448;2023-08-17T07:36:05;6.80;;;6.32;;
45356;SDS011;31092;51.924;21.448;2023-08-17T07:38:30;14.73;;;7.80;;
45356;SDS011;31092;51.924;21.448;2023-08-17T07:40:56;5.93;;;5.63;;
45356;SDS011;31092;51.924;21.448;2023-08-17T07:43:22;13.90;;;6.60;;
45356;SDS011;31092;51.924;21.448;2023-08-17T07:45:55;8.05;;;7.28;;
45356;SDS011;31092;51.924;21.448;2023-08-17T07:48:21;7.03;;;6.60;;
45356;SDS011;31092;51.924;21.448;2023-08-17T07:50:50;7.55;;;6.93;;
45356;SDS011;31092;51.924;21.448;2023-08-17T07:53:17;7.45;;;7.00;;
45356;SDS011;31092;51.924;21.448;2023-08-17T07:55:43;6.03;;;5.57;;
45356;SDS011;31092;51.924;21.448;2023-08-17T07:58:08;6.35;;;6.05;;
45356;SDS011;31092;51.924;21.448;2023-08-17T08:00:34;6.50;;;6.20;;
45356;SDS011;31092;51.924;21.448;2023-08-17T08:02:59;7.85;;;6.85;;
45356;SDS011;31092;51.924;21.448;2023-08-17T08:05:25;7.07;;;6.63;;
45356;SDS011;31092;51.924;21.448;2023-08-17T08:07:51;6.97;;;6.57;;
45356;SDS011;31092;51.924;21.448;2023-08-17T08:10:16;7.85;;;7.40;;
45356;SDS011;31092;51.924;21.448;2023-08-17T08:12:42;7.65;;;7.00;;
45356;SDS011;31092;51.924;21.448;2023-08-17T08:15:07;7.15;;;6.47;;
45356;SDS011;31092;51.924;21.448;2023-08-17T08:17:33;6.43;;;6.03;;
45356;SDS011;31092;51.924;21.448;2023-08-17T08:19:59;7.07;;;6.57;;
45356;SDS011;31092;51.924;21.448;2023-08-17T08:22:24;6.57;;;6.18;;
45356;SDS011;31092;51.924;21.448;2023-08-17T08:24:50;7.18;;;6.45;;
45356;SDS011;31092;51.924;21.448;2023-08-17T08:27:15;7.85;;;7.25;;
45356;SDS011;31092;51.924;21.448;2023-08-17T08:29:41;6.93;;;6.53;;
45356;SDS011;31092;51.924;21.448;2023-08-17T08:32:06;7.05;;;6.65;;
45356;SDS011;31092;51.924;21.448;2023-08-17T08:34:32;7.18;;;6.38;;
45356;SDS011;31092;51.924;21.448;2023-08-17T08:36:57;7.00;;;6.32;;
45356;SDS011;31092;51.924;21.448;2023-08-17T08:39:25;6.35;;;5.95;;
45356;SDS011;31092;51.924;21.448;2023-08-17T08:41:51;6.70;;;6.30;;
45356;SDS011;31092;51.924;21.448;2023-08-17T08:44:17;6.88;;;6.47;;
45356;SDS011;31092;51.924;21.448;2023-08-17T08:46:46;8.10;;;6.72;;
45356;SDS011;31092;51.924;21.448;2023-08-17T08:51:42;8.15;;;6.82;;
45356;SDS011;31092;51.924;21.448;2023-08-17T08:54:13;6.72;;;6.22;;
45356;SDS011;31092;51.924;21.448;2023-08-17T08:56:40;7.05;;;6.65;;
45356;SDS011;31092;51.924;21.448;2023-08-17T08:59:08;6.88;;;6.38;;
45356;SDS011;31092;51.924;21.448;2023-08-17T09:01:34;6.72;;;6.43;;
45356;SDS011;31092;51.924;21.448;2023-08-17T09:04:00;7.07;;;6.53;;
45356;SDS011;31092;51.924;21.448;2023-08-17T09:06:27;7.70;;;6.82;;
45356;SDS011;31092;51.924;21.448;2023-08-17T09:08:54;7.40;;;7.00;;
45356;SDS011;31092;51.924;21.448;2023-08-17T09:11:21;8.05;;;7.55;;
45356;SDS011;31092;51.924;21.448;2023-08-17T09:13:47;7.70;;;7.25;;
45356;SDS011;31092;51.924;21.448;2023-08-17T09:16:12;8.07;;;7.57;;
45356;SDS011;31092;51.924;21.448;2023-08-17T09:18:38;7.50;;;7.20;;
45356;SDS011;31092;51.924;21.448;2023-08-17T09:21:03;6.82;;;6.45;;
45356;SDS011;31092;51.924;21.448;2023-08-17T09:23:29;7.00;;;6.40;;
45356;SDS011;31092;51.924;21.448;2023-08-17T09:25:54;7.82;;;7.43;;
45356;SDS011;31092;51.924;21.448;2023-08-17T09:28:23;7.55;;;7.15;;
45356;SDS011;31092;51.924;21.448;2023-08-17T09:30:53;6.93;;;6.43;;
45356;SDS011;31092;51.924;21.448;2023-08-17T09:33:24;7.75;;;7.43;;
45356;SDS011;31092;51.924;21.448;2023-08-17T09:35:53;7.90;;;7.15;;
45356;SDS011;31092;51.924;21.448;2023-08-17T09:38:19;7.82;;;7.32;;
45356;SDS011;31092;51.924;21.448;2023-08-17T09:40:45;6.65;;;6.35;;
45356;SDS011;31092;51.924;21.448;2023-08-17T09:43:12;7.65;;;7.22;;
45356;SDS011;31092;51.924;21.448;2023-08-17T09:45:39;7.38;;;6.97;;
45356;SDS011;31092;51.924;21.448;2023-08-17T09:48:05;7.30;;;6.90;;
45356;SDS011;31092;51.924;21.448;2023-08-17T09:53:01;7.13;;;6.47;;
45356;SDS011;31092;51.924;21.448;2023-08-17T09:55:32;8.43;;;7.63;;
45356;SDS011;31092;51.924;21.448;2023-08-17T09:58:02;6.88;;;6.40;;
45356;SDS011;31092;51.924;21.448;2023-08-17T10:00:28;6.65;;;6.35;;
45356;SDS011;31092;51.924;21.448;2023-08-17T10:02:55;6.90;;;6.55;;
45356;SDS011;31092;51.924;21.448;2023-08-17T10:05:23;7.47;;;7.07;;
45356;SDS011;31092;51.924;21.448;2023-08-17T10:07:54;7.10;;;6.80;;
45356;SDS011;31092;51.924;21.448;2023-08-17T10:10:22;7.70;;;7.00;;
45356;SDS011;31092;51.924;21.448;2023-08-17T10:12:53;7.45;;;7.15;;
45356;SDS011;31092;51.924;21.448;2023-08-17T10:15:29;7.50;;;7.00;;
45356;SDS011;31092;51.924;21.448;2023-08-17T10:18:13;7.68;;;7.13;;
45356;SDS011;31092;51.924;21.448;2023-08-17T10:20:49;7.32;;;6.93;;
45356;SDS011;31092;51.924;21.448;2023-08-17T10:23:31;7.25;;;6.85;;
45356;SDS011;31092;51.924;21.448;2023-08-17T10:25:57;6.45;;;6.15;;
45356;SDS011;31092;51.924;21.448;2023-08-17T10:28:26;7.05;;;6.75;;
45356;SDS011;31092;51.924;21.448;2023-08-17T10:30:52;6.90;;;6.60;;
45356;SDS011;31092;51.924;21.448;2023-08-17T10:33:18;7.38;;;6.97;;
45356;SDS011;31092;51.924;21.448;2023-08-17T10:35:44;6.82;;;6.53;;
45356;SDS011;31092;51.924;21.448;2023-08-17T10:38:11;6.70;;;6.40;;
45356;SDS011;31092;51.924;21.448;2023-08-17T10:40:38;7.15;;;6.85;;
45356;SDS011;31092;51.924;21.448;2023-08-17T10:43:06;7.05;;;6.70;;
45356;SDS011;31092;51.924;21.448;2023-08-17T10:45:33;7.28;;;6.97;;
45356;SDS011;31092;51.924;21.448;2023-08-17T10:50:32;7.15;;;6.85;;
45356;SDS011;31092;51.924;21.448;2023-08-17T10:52:58;7.28;;;6.75;;
45356;SDS011;31092;51.924;21.448;2023-08-17T10:55:39;6.70;;;6.35;;
45356;SDS011;31092;51.924;21.448;2023-08-17T10:58:06;7.10;;;6.70;;
45356;SDS011;31092;51.924;21.448;2023-08-17T11:00:36;7.95;;;6.45;;
45356;SDS011;31092;51.924;21.448;2023-08-17T11:03:05;6.30;;;6.00;;
45356;SDS011;31092;51.924;21.448;2023-08-17T11:08:04;7.38;;;6.97;;
45356;SDS011;31092;51.924;21.448;2023-08-17T11:10:31;6.90;;;6.43;;
45356;SDS011;31092;51.924;21.448;2023-08-17T11:12:57;6.75;;;6.45;;
45356;SDS011;31092;51.924;21.448;2023-08-17T11:15:36;6.50;;;6.20;;
45356;SDS011;31092;51.924;21.448;2023-08-17T11:18:10;6.45;;;6.13;;
45356;SDS011;31092;51.924;21.448;2023-08-17T11:20:38;6.05;;;5.75;;
45356;SDS011;31092;51.924;21.448;2023-08-17T11:23:05;5.95;;;5.57;;
45356;SDS011;31092;51.924;21.448;2023-08-17T11:25:32;8.00;;;6.05;;
45356;SDS011;31092;51.924;21.448;2023-08-17T11:27:59;6.32;;;6.03;;
45356;SDS011;31092;51.924;21.448;2023-08-17T11:30:26;6.00;;;5.70;;
45356;SDS011;31092;51.924;21.448;2023-08-17T11:32:53;7.72;;;6.07;;
45356;SDS011;31092;51.924;21.448;2023-08-17T11:35:19;7.30;;;5.95;;
45356;SDS011;31092;51.924;21.448;2023-08-17T11:37:45;5.55;;;5.25;;
45356;SDS011;31092;51.924;21.448;2023-08-17T11:40:11;6.72;;;6.22;;
45356;SDS011;31092;51.924;21.448;2023-08-17T11:42:37;9.00;;;6.25;;
45356;SDS011;31092;51.924;21.448;2023-08-17T11:45:04;6.53;;;6.22;;
45356;SDS011;31092;51.924;21.448;2023-08-17T11:47:30;5.82;;;5.55;;
45356;SDS011;31092;51.924;21.448;2023-08-17T11:50:00;6.70;;;6.30;;
45356;SDS011;31092;51.924;21.448;2023-08-17T11:52:30;7.28;;;6.78;;
45356;SDS011;31092;51.924;21.448;2023-08-17T11:54:59;6.20;;;5.88;;
45356;SDS011;31092;51.924;21.448;2023-08-17T11:57:25;5.78;;;5.47;;
45356;SDS011;31092;51.924;21.448;2023-08-17T11:59:54;6.38;;;6.05;;
45356;SDS011;31092;51.924;21.448;2023-08-17T12:02:22;6.25;;;5.95;;
45356;SDS011;31092;51.924;21.448;2023-08-17T12:04:49;5.85;;;5.43;;
45356;SDS011;31092;51.924;21.448;2023-08-17T12:07:15;6.90;;;6.50;;
45356;SDS011;31092;51.924;21.448;2023-08-17T12:09:44;7.25;;;6.85;;
45356;SDS011;31092;51.924;21.448;2023-08-17T12:12:11;16.15;;;6.68;;
45356;SDS011;31092;51.924;21.448;2023-08-17T12:14:40;6.47;;;5.82;;
45356;SDS011;31092;51.924;21.448;2023-08-17T12:17:13;7.32;;;6.90;;
45356;SDS011;31092;51.924;21.448;2023-08-17T12:19:40;6.15;;;5.75;;
45356;SDS011;31092;51.924;21.448;2023-08-17T12:22:05;6.75;;;6.40;;
45356;SDS011;31092;51.924;21.448;2023-08-17T12:24:31;6.53;;;6.13;;
45356;SDS011;31092;51.924;21.448;2023-08-17T12:26:57;5.50;;;5.22;;
45356;SDS011;31092;51.924;21.448;2023-08-17T12:29:24;5.72;;;5.43;;
45356;SDS011;31092;51.924;21.448;2023-08-17T12:31:51;5.88;;;5.47;;
45356;SDS011;31092;51.924;21.448;2023-08-17T12:34:17;5.63;;;5.40;;
45356;SDS011;31092;51.924;21.448;2023-08-17T12:36:43;6.30;;;6.00;;
45356;SDS011;31092;51.924;21.448;2023-08-17T12:39:09;5.88;;;5.60;;
45356;SDS011;31092;51.924;21.448;2023-08-17T12:41:35;5.65;;;5.25;;
45356;SDS011;31092;51.924;21.448;2023-08-17T12:44:00;5.75;;;5.38;;
45356;SDS011;31092;51.924;21.448;2023-08-17T12:46:26;6.00;;;5.75;;
45356;SDS011;31092;51.924;21.448;2023-08-17T12:48:52;5.13;;;4.93;;
45356;SDS011;31092;51.924;21.448;2023-08-17T12:51:18;6.32;;;5.93;;
45356;SDS011;31092;51.924;21.448;2023-08-17T12:53:43;5.60;;;5.30;;
45356;SDS011;31092;51.924;21.448;2023-08-17T12:56:09;5.85;;;5.57;;
45356;SDS011;31092;51.924;21.448;2023-08-17T12:58:35;5.60;;;5.20;;
45356;SDS011;31092;51.924;21.448;2023-08-17T13:01:01;5.82;;;5.32;;
45356;SDS011;31092;51.924;21.448;2023-08-17T13:03:27;5.43;;;5.22;;
45356;SDS011;31092;51.924;21.448;2023-08-17T13:05:53;5.72;;;5.32;;
45356;SDS011;31092;51.924;21.448;2023-08-17T13:08:19;6.00;;;5.70;;
45356;SDS011;31092;51.924;21.448;2023-08-17T13:10:44;4.95;;;4.75;;
45356;SDS011;31092;51.924;21.448;2023-08-17T13:13:10;5.30;;;5.10;;
45356;SDS011;31092;51.924;21.448;2023-08-17T13:15:35;5.28;;;5.05;;
45356;SDS011;31092;51.924;21.448;2023-08-17T13:18:01;5.38;;;5.07;;
45356;SDS011;31092;51.924;21.448;2023-08-17T13:20:27;5.88;;;5.47;;
45356;SDS011;31092;51.924;21.448;2023-08-17T13:22:52;5.60;;;5.30;;
45356;SDS011;31092;51.924;21.448;2023-08-17T13:25:18;4.75;;;4.55;;
45356;SDS011;31092;51.924;21.448;2023-08-17T13:27:43;5.40;;;5.18;;
45356;SDS011;31092;51.924;21.448;2023-08-17T13:30:09;5.20;;;4.97;;
45356;SDS011;31092;51.924;21.448;2023-08-17T13:32:35;4.70;;;4.50;;
45356;SDS011;31092;51.924;21.448;2023-08-17T13:35:01;5.72;;;5.40;;
45356;SDS011;31092;51.924;21.448;2023-08-17T13:37:28;5.65;;;5.28;;
45356;SDS011;31092;51.924;21.448;2023-08-17T13:39:53;5.03;;;4.63;;
45356;SDS011;31092;51.924;21.448;2023-08-17T13:42:19;5.68;;;5.22;;
45356;SDS011;31092;51.924;21.448;2023-08-17T13:44:45;5.03;;;4.82;;
45356;SDS011;31092;51.924;21.448;2023-08-17T13:47:11;6.38;;;5.80;;
45356;SDS011;31092;51.924;21.448;2023-08-17T13:49:37;5.45;;;5.20;;
45356;SDS011;31092;51.924;21.448;2023-08-17T13:52:02;5.82;;;5.53;;
45356;SDS011;31092;51.924;21.448;2023-08-17T13:54:28;5.88;;;5.57;;
45356;SDS011;31092;51.924;21.448;2023-08-17T13:56:54;5.22;;;5.03;;
45356;SDS011;31092;51.924;21.448;2023-08-17T13:59:19;5.85;;;5.57;;
45356;SDS011;31092;51.924;21.448;2023-08-17T14:01:45;5.03;;;4.82;;
45356;SDS011;31092;51.924;21.448;2023-08-17T14:04:10;6.32;;;5.95;;
45356;SDS011;31092;51.924;21.448;2023-08-17T14:06:39;5.80;;;5.50;;
45356;SDS011;31092;51.924;21.448;2023-08-17T14:09:05;5.97;;;5.68;;
45356;SDS011;31092;51.924;21.448;2023-08-17T14:11:31;6.65;;;6.25;;
45356;SDS011;31092;51.924;21.448;2023-08-17T14:13:56;5.88;;;5.47;;
45356;SDS011;31092;51.924;21.448;2023-08-17T14:16:22;6.50;;;6.00;;
45356;SDS011;31092;51.924;21.448;2023-08-17T14:18:47;6.28;;;5.88;;
45356;SDS011;31092;51.924;21.448;2023-08-17T14:21:13;5.07;;;4.85;;
45356;SDS011;31092;51.924;21.448;2023-08-17T14:23:39;5.45;;;5.22;;
45356;SDS011;31092;51.924;21.448;2023-08-17T14:26:05;5.97;;;5.57;;
45356;SDS011;31092;51.924;21.448;2023-08-17T14:28:31;5.55;;;5.35;;
45356;SDS011;31092;51.924;21.448;2023-08-17T14:30:56;5.43;;;5.22;;
45356;SDS011;31092;51.924;21.448;2023-08-17T14:33:22;5.15;;;4.93;;
45356;SDS011;31092;51.924;21.448;2023-08-17T14:35:48;5.90;;;5.65;;
45356;SDS011;31092;51.924;21.448;2023-08-17T14:38:14;5.32;;;5.13;;
45356;SDS011;31092;51.924;21.448;2023-08-17T14:40:42;5.80;;;5.40;;